Arbuckle, West Virginia
Current Conditions -  °F | °C
As of 2:15 PM on Monday 20 Oct 2014 (Local Time) from K3I2 Reporting Station
Broken Clouds Broken Clouds  
Wind Chill: 59°   Ceiling: 10000
Heat Index: 59°   Visibility: 10mi
Dew Point: 45°   Wind: 8mph
Humidity: 59%   Direction: 210°SSW
Pressure: 29.96"   Gusts: NA
Location:  38.7463°N, 81.8897°W
Report Text: K3I2 201815Z AUTO 21007KT 10SM SCT060 BKN100 15/07 A2996 RMK AO2
Loading
Personal Weather Stations






























Interactive Weather Map
Tropical Storm Tracking
New forecast layout! Learn more

10-Day Weather Forecast

Advertisements
Track Severe Weather on mobile